AZU4409 SBPJ-SBCF
Flight info
| Callsign | AZU4409 |
|---|---|
| Flight time | N/A |
| Altitude | 37000 |
| Route | ISINA DCT GEVMI |
| Aircraft | A320/M-SDE3FGHIRWY/LB1 |
Departure
| Time | 2026-05-05 22:25 |
|---|---|
| Airport | Brigadeiro Lysias Rodrigues Airport (SBPJ) |
Arrival
| Time | N/A |
|---|---|
| Airport | Tancredo Neves International Airport (SBCF) |
| Time | Latitude | Longitude | Altitude | Speed | Heading |
|---|---|---|---|---|---|
| 2026-05-05 22:06 | -10.29463 | -48.35776 | 750 ft | 0 kts | 215° |
| 2026-05-05 22:13 | -10.29449 | -48.35765 | 745 ft | 4 kts | 220° |
| 2026-05-05 22:14 | -10.29430 | -48.35746 | 750 ft | 4 kts | 237° |
| 2026-05-05 22:14 | -10.29422 | -48.35723 | 748 ft | 4 kts | 282° |
| 2026-05-05 22:14 | -10.29426 | -48.35711 | 749 ft | 1 kts | 304° |
| 2026-05-05 22:14 | -10.29427 | -48.35710 | 748 ft | 0 kts | 304° |
| 2026-05-05 22:17 | -10.29425 | -48.35713 | 749 ft | 3 kts | 304° |
| 2026-05-05 22:18 | -10.29395 | -48.35756 | 748 ft | 10 kts | 304° |
| 2026-05-05 22:18 | -10.29353 | -48.35812 | 747 ft | 9 kts | 327° |
| 2026-05-05 22:18 | -10.29297 | -48.35799 | 750 ft | 9 kts | 32° |
| 2026-05-05 22:18 | -10.29237 | -48.35756 | 747 ft | 3 kts | 35° |
| 2026-05-05 22:19 | -10.29237 | -48.35755 | 747 ft | 0 kts | 35° |
| 2026-05-05 22:21 | -10.29224 | -48.35746 | 749 ft | 5 kts | 35° |
| 2026-05-05 22:21 | -10.29171 | -48.35718 | 747 ft | 12 kts | 8° |
| 2026-05-05 22:21 | -10.29101 | -48.35780 | 748 ft | 16 kts | 301° |
| 2026-05-05 22:21 | -10.29029 | -48.35890 | 747 ft | 21 kts | 301° |
| 2026-05-05 22:22 | -10.28939 | -48.36030 | 747 ft | 26 kts | 303° |
| 2026-05-05 22:22 | -10.28832 | -48.36192 | 749 ft | 30 kts | 304° |
| 2026-05-05 22:22 | -10.28720 | -48.36354 | 750 ft | 23 kts | 304° |
| 2026-05-05 22:22 | -10.28634 | -48.36492 | 751 ft | 24 kts | 302° |
| 2026-05-05 22:23 | -10.28593 | -48.36631 | 748 ft | 13 kts | 252° |
| 2026-05-05 22:23 | -10.28542 | -48.36632 | 752 ft | 13 kts | 96° |
| 2026-05-05 22:23 | -10.28559 | -48.36608 | 751 ft | 0 kts | 127° |
| 2026-05-05 22:24 | -10.28567 | -48.36597 | 748 ft | 19 kts | 127° |
| 2026-05-05 22:24 | -10.28799 | -48.36245 | 750 ft | 97 kts | 123° |
| 2026-05-05 22:25 | -10.29288 | -48.35495 | 750 ft | 154 kts | 123° |
| 2026-05-05 22:25 | -10.29929 | -48.34527 | 1190 ft | 170 kts | 126° |
| 2026-05-05 22:25 | -10.30583 | -48.33534 | 1963 ft | 168 kts | 127° |
| 2026-05-05 22:25 | -10.31276 | -48.32489 | 2261 ft | 189 kts | 126° |
| 2026-05-05 22:26 | -10.32058 | -48.31309 | 2455 ft | 214 kts | 126° |
| 2026-05-05 22:26 | -10.32933 | -48.29981 | 2807 ft | 239 kts | 125° |
| 2026-05-05 22:26 | -10.33891 | -48.28526 | 3370 ft | 254 kts | 125° |
| 2026-05-05 22:26 | -10.34928 | -48.27053 | 4186 ft | 258 kts | 134° |
| 2026-05-05 22:27 | -10.36406 | -48.26007 | 5046 ft | 262 kts | 153° |
| 2026-05-05 22:27 | -10.38113 | -48.25316 | 5900 ft | 267 kts | 160° |
| 2026-05-05 22:27 | -10.39897 | -48.24744 | 6739 ft | 270 kts | 161° |
| 2026-05-05 22:27 | -10.41710 | -48.24179 | 7545 ft | 274 kts | 160° |
| 2026-05-05 22:28 | -10.43539 | -48.23577 | 8351 ft | 279 kts | 159° |
| 2026-05-05 22:28 | -10.45386 | -48.22930 | 9142 ft | 283 kts | 158° |
| 2026-05-05 22:28 | -10.47253 | -48.22241 | 9925 ft | 288 kts | 157° |
| 2026-05-05 22:28 | -10.49167 | -48.21507 | 10373 ft | 305 kts | 157° |
| 2026-05-05 22:29 | -10.51222 | -48.20705 | 10676 ft | 325 kts | 157° |
| 2026-05-05 22:29 | -10.53360 | -48.19867 | 11265 ft | 333 kts | 157° |
| 2026-05-05 22:29 | -10.55535 | -48.19014 | 11953 ft | 337 kts | 156° |
| 2026-05-05 22:29 | -10.57734 | -48.18154 | 12647 ft | 341 kts | 156° |
| 2026-05-05 22:30 | -10.59957 | -48.17284 | 13311 ft | 344 kts | 156° |
| 2026-05-05 22:30 | -10.62202 | -48.16407 | 13958 ft | 347 kts | 156° |
| 2026-05-05 22:30 | -10.64469 | -48.15519 | 14529 ft | 351 kts | 156° |
| 2026-05-05 22:30 | -10.66756 | -48.14625 | 15100 ft | 353 kts | 157° |
| 2026-05-05 22:31 | -10.69055 | -48.13728 | 15670 ft | 356 kts | 157° |
| 2026-05-05 22:31 | -10.71382 | -48.12819 | 16221 ft | 359 kts | 157° |
| 2026-05-05 22:31 | -10.73724 | -48.11905 | 16786 ft | 362 kts | 158° |
| 2026-05-05 22:31 | -10.76087 | -48.10981 | 17357 ft | 365 kts | 158° |
| 2026-05-05 22:32 | -10.78461 | -48.10050 | 17913 ft | 368 kts | 158° |
| 2026-05-05 22:32 | -10.80858 | -48.09110 | 18434 ft | 370 kts | 158° |
| 2026-05-05 22:32 | -10.83273 | -48.08164 | 18908 ft | 373 kts | 158° |
| 2026-05-05 22:32 | -10.85704 | -48.07212 | 19372 ft | 376 kts | 158° |
| 2026-05-05 22:33 | -10.88155 | -48.06254 | 19831 ft | 379 kts | 158° |
| 2026-05-05 22:33 | -10.90625 | -48.05288 | 20290 ft | 382 kts | 158° |
| 2026-05-05 22:33 | -10.93110 | -48.04302 | 20750 ft | 385 kts | 158° |
| 2026-05-05 22:33 | -10.95612 | -48.03301 | 21201 ft | 388 kts | 158° |
| 2026-05-05 22:34 | -10.98133 | -48.02288 | 21637 ft | 391 kts | 158° |
| 2026-05-05 22:34 | -11.00637 | -48.01277 | 22062 ft | 394 kts | 158° |
| 2026-05-05 22:34 | -11.03229 | -48.00231 | 22490 ft | 397 kts | 158° |
| 2026-05-05 22:34 | -11.05807 | -47.99193 | 22913 ft | 400 kts | 159° |
| 2026-05-05 22:35 | -11.08371 | -47.98164 | 23322 ft | 403 kts | 159° |
| 2026-05-05 22:35 | -11.10991 | -47.97116 | 23716 ft | 406 kts | 159° |
| 2026-05-05 22:35 | -11.13629 | -47.96062 | 24089 ft | 408 kts | 159° |
| 2026-05-05 22:35 | -11.16275 | -47.95005 | 24472 ft | 409 kts | 159° |
| 2026-05-05 22:36 | -11.18927 | -47.93941 | 24857 ft | 410 kts | 159° |
| 2026-05-05 22:36 | -11.21581 | -47.92873 | 25232 ft | 411 kts | 159° |
| 2026-05-05 22:36 | -11.24248 | -47.91800 | 25625 ft | 412 kts | 160° |
| 2026-05-05 22:36 | -11.26923 | -47.90726 | 26006 ft | 414 kts | 160° |
| 2026-05-05 22:37 | -11.29601 | -47.89650 | 26388 ft | 415 kts | 160° |
| 2026-05-05 22:37 | -11.32293 | -47.88569 | 26761 ft | 416 kts | 160° |
| 2026-05-05 22:37 | -11.34987 | -47.87488 | 27127 ft | 417 kts | 160° |
| 2026-05-05 22:37 | -11.37689 | -47.86401 | 27487 ft | 418 kts | 160° |
| 2026-05-05 22:38 | -11.40398 | -47.85313 | 27847 ft | 419 kts | 160° |
| 2026-05-05 22:38 | -11.43113 | -47.84222 | 28198 ft | 420 kts | 160° |
| 2026-05-05 22:38 | -11.45842 | -47.83127 | 28551 ft | 422 kts | 161° |
| 2026-05-05 22:38 | -11.48542 | -47.82044 | 28896 ft | 423 kts | 161° |
| 2026-05-05 22:39 | -11.51283 | -47.80945 | 29248 ft | 424 kts | 161° |
| 2026-05-05 22:39 | -11.54033 | -47.79842 | 29583 ft | 425 kts | 161° |
| 2026-05-05 22:39 | -11.56787 | -47.78735 | 29923 ft | 427 kts | 161° |
| 2026-05-05 22:39 | -11.59509 | -47.77501 | 30207 ft | 430 kts | 154° |
| 2026-05-05 22:40 | -11.62136 | -47.76020 | 30451 ft | 432 kts | 154° |
| 2026-05-05 22:40 | -11.64774 | -47.74530 | 30684 ft | 434 kts | 154° |
| 2026-05-05 22:40 | -11.67424 | -47.73033 | 30912 ft | 437 kts | 154° |
| 2026-05-05 22:40 | -11.70089 | -47.71529 | 31147 ft | 439 kts | 154° |
| 2026-05-05 22:41 | -11.72766 | -47.70018 | 31363 ft | 441 kts | 154° |
| 2026-05-05 22:41 | -11.75452 | -47.68503 | 31641 ft | 441 kts | 154° |
| 2026-05-05 22:41 | -11.78135 | -47.66987 | 31993 ft | 440 kts | 154° |